Time;durP1;ratioP1;P1;durP2;ratioP2;P2;SDS_P1;SDS_P2;PMS_P1;PMS_P2;Temp;Humidity;BMP_temperature;BMP_pressure;BME280_temperature;BME280_humidity;BME280_pressure;Samples;Min_cycle;Max_cycle;Signal;HPM_P1;HPM_P2
2021/04/27 00:01:22;;;;;;;;;22.50;22.50;;;;;;;;5021570;28;12360;-77
2021/04/27 00:03:49;;;;;;;;;23.25;23.00;;;;;;;;5005377;28;11601;-77
2021/04/27 00:06:16;;;;;;;;;25.50;23.25;;;;;;;;5020786;28;11610;-77
2021/04/27 00:08:43;;;;;;;;;18.25;18.25;;;;;;;;5021917;28;11640;-78
2021/04/27 00:11:11;;;;;;;;;24.75;23.25;;;;;;;;5021708;28;11641;-78
2021/04/27 00:13:38;;;;;;;;;19.75;18.75;;;;;;;;5022217;28;11576;-77
2021/04/27 00:16:06;;;;;;;;;20.75;19.75;;;;;;;;5021570;28;12961;-78
2021/04/27 00:18:33;;;;;;;;;26.25;26.25;;;;;;;;5021153;28;11632;-78
2021/04/27 00:21:00;;;;;;;;;19.25;19.25;;;;;;;;5020534;28;11593;-78
2021/04/27 00:23:29;;;;;;;;;24.75;21.25;;;;;;;;5022272;28;11605;-77
2021/04/27 00:25:56;;;;;;;;;26.25;22.00;;;;;;;;5021180;28;12384;-79
2021/04/27 00:28:23;;;;;;;;;26.75;24.25;;;;;;;;5020650;28;11626;-79
2021/04/27 00:30:51;;;;;;;;;21.50;21.00;;;;;;;;5022536;28;11660;-79
2021/04/27 00:33:18;;;;;;;;;25.25;24.75;;;;;;;;5026746;28;11620;-79
2021/04/27 00:35:45;;;;;;;;;28.75;27.75;;;;;;;;5022733;28;12391;-77
2021/04/27 00:38:12;;;;;;;;;17.50;17.50;;;;;;;;5020863;28;11641;-78
2021/04/27 00:40:40;;;;;;;;;21.25;20.75;;;;;;;;5013423;28;11740;-80
2021/04/27 00:43:07;;;;;;;;;25.75;24.25;;;;;;;;5013262;28;11651;-78
2021/04/27 00:45:34;;;;;;;;;22.25;21.75;;;;;;;;5020903;28;11603;-79
2021/04/27 00:48:01;;;;;;;;;22.75;20.00;;;;;;;;5020726;28;11590;-78
2021/04/27 00:50:30;;;;;;;;;21.25;19.25;;;;;;;;5019430;28;11633;-78
2021/04/27 00:52:58;;;;;;;;;29.25;27.50;;;;;;;;5021113;28;11585;-78
2021/04/27 00:55:25;;;;;;;;;25.00;25.00;;;;;;;;5020209;28;11724;-78
2021/04/27 00:57:54;;;;;;;;;23.50;23.50;;;;;;;;5019756;28;11635;-78
2021/04/27 01:00:25;;;;;;;;;32.50;29.75;;;;;;;;5019523;28;11784;-78
2021/04/27 01:02:52;;;;;;;;;23.75;22.00;;;;;;;;5020869;28;11646;-80
2021/04/27 01:05:21;;;;;;;;;25.75;23.25;;;;;;;;5022358;28;11638;-79
2021/04/27 01:07:52;;;;;;;;;33.00;28.25;;;;;;;;5020634;28;11622;-80
2021/04/27 01:10:23;;;;;;;;;31.25;29.50;;;;;;;;5021083;28;11604;-82
2021/04/27 01:12:58;;;;;;;;;37.25;32.00;;;;;;;;5019162;28;11667;-80
2021/04/27 01:15:28;;;;;;;;;31.75;30.25;;;;;;;;5022030;28;11612;-82
2021/04/27 01:17:57;;;;;;;;;30.50;29.25;;;;;;;;5020949;28;11669;-78
2021/04/27 01:20:34;;;;;;;;;33.00;30.00;;;;;;;;5021069;28;11606;-80
2021/04/27 01:23:30;;;;;;;;;31.00;30.50;;;;;;;;5024711;28;11657;-79
2021/04/27 01:26:04;;;;;;;;;28.50;26.75;;;;;;;;5022776;28;12378;-78
2021/04/27 01:28:33;;;;;;;;;33.25;28.25;;;;;;;;5014790;28;11692;-82
2021/04/27 01:31:00;;;;;;;;;33.25;31.50;;;;;;;;5025980;28;11591;-77
2021/04/27 01:33:30;;;;;;;;;29.50;29.00;;;;;;;;5024544;28;11687;-80
2021/04/27 01:35:58;;;;;;;;;31.50;26.75;;;;;;;;5026324;28;11640;-83
2021/04/27 01:38:26;;;;;;;;;30.25;30.25;;;;;;;;5024237;28;11665;-80
2021/04/27 01:40:54;;;;;;;;;30.50;29.00;;;;;;;;5026229;28;11729;-77
2021/04/27 01:43:24;;;;;;;;;37.50;36.00;;;;;;;;5023739;28;11764;-82
2021/04/27 01:45:56;;;;;;;;;29.00;27.75;;;;;;;;5026065;28;11607;-79
2021/04/27 01:48:24;;;;;;;;;36.25;33.75;;;;;;;;5024179;28;11612;-82
2021/04/27 01:50:51;;;;;;;;;42.00;36.75;;;;;;;;5024592;28;11643;-78
2021/04/27 01:53:18;;;;;;;;;25.75;25.75;;;;;;;;5026202;28;11623;-81
2021/04/27 01:55:45;;;;;;;;;34.50;30.50;;;;;;;;5024279;28;11620;-82
2021/04/27 01:58:12;;;;;;;;;34.50;30.25;;;;;;;;5024615;28;12450;-82
2021/04/27 02:00:39;;;;;;;;;37.25;36.75;;;;;;;;5023859;28;11688;-82
2021/04/27 02:03:07;;;;;;;;;35.25;32.50;;;;;;;;5024515;28;11618;-81
2021/04/27 02:05:34;;;;;;;;;34.25;32.00;;;;;;;;5025486;28;11633;-81
2021/04/27 02:08:01;;;;;;;;;36.75;29.50;;;;;;;;5025451;28;11605;-80
2021/04/27 02:10:29;;;;;;;;;29.50;27.50;;;;;;;;5024648;28;11593;-81
2021/04/27 02:12:59;;;;;;;;;28.00;27.00;;;;;;;;5022952;28;11705;-80
2021/04/27 02:15:27;;;;;;;;;33.50;29.25;;;;;;;;5024880;28;11688;-79
2021/04/27 02:18:02;;;;;;;;;35.50;33.00;;;;;;;;5024217;28;11588;-77
2021/04/27 02:20:31;;;;;;;;;42.75;36.25;;;;;;;;5025602;28;12380;-81
2021/04/27 02:23:00;;;;;;;;;35.50;31.25;;;;;;;;5024705;28;11628;-85
2021/04/27 02:25:27;;;;;;;;;33.00;32.75;;;;;;;;5023651;28;11677;-82
2021/04/27 02:27:55;;;;;;;;;33.75;33.00;;;;;;;;5026148;28;11613;-82
2021/04/27 02:30:23;;;;;;;;;37.25;34.00;;;;;;;;5023058;28;11514;-79
2021/04/27 02:32:52;;;;;;;;;32.25;31.25;;;;;;;;5025009;28;11717;-81
2021/04/27 02:35:20;;;;;;;;;28.00;28.00;;;;;;;;5023355;28;11621;-81
2021/04/27 02:37:50;;;;;;;;;45.25;35.50;;;;;;;;5024789;28;11621;-79
2021/04/27 02:40:22;;;;;;;;;33.00;31.50;;;;;;;;5022955;28;11642;-80
2021/04/27 02:42:51;;;;;;;;;39.75;36.50;;;;;;;;5012396;28;11599;-80
2021/04/27 02:45:19;;;;;;;;;33.75;33.50;;;;;;;;5024880;28;11742;-80
2021/04/27 02:47:46;;;;;;;;;26.25;20.75;;;;;;;;5022842;28;11643;-81
2021/04/27 02:50:15;;;;;;;;;36.50;36.25;;;;;;;;5022895;28;11673;-83
2021/04/27 02:52:43;;;;;;;;;27.50;24.50;;;;;;;;5024438;28;11616;-89
2021/04/27 02:55:13;;;;;;;;;37.00;34.25;;;;;;;;5025719;28;11662;-83
2021/04/27 02:57:40;;;;;;;;;41.25;36.50;;;;;;;;5024262;28;11615;-83
2021/04/27 03:00:08;;;;;;;;;35.00;32.25;;;;;;;;5024899;28;11615;-83
2021/04/27 03:02:35;;;;;;;;;39.75;33.00;;;;;;;;5031152;28;11716;-83
2021/04/27 03:05:02;;;;;;;;;30.50;26.00;;;;;;;;5024274;28;11649;-86
2021/04/27 03:07:29;;;;;;;;;38.00;35.00;;;;;;;;5025066;28;11620;-87
2021/04/27 03:09:56;;;;;;;;;41.75;34.75;;;;;;;;5022774;28;11599;-80
2021/04/27 03:12:25;;;;;;;;;42.50;39.25;;;;;;;;5004549;28;12560;-80
2021/04/27 03:14:52;;;;;;;;;41.25;36.00;;;;;;;;5023052;28;11622;-79
2021/04/27 03:17:19;;;;;;;;;41.75;37.50;;;;;;;;5024740;28;11746;-78
2021/04/27 03:19:46;;;;;;;;;36.50;33.00;;;;;;;;5028243;28;11679;-79
2021/04/27 03:22:13;;;;;;;;;39.00;35.50;;;;;;;;5024558;28;11732;-80
2021/04/27 03:24:40;;;;;;;;;32.25;32.25;;;;;;;;5022840;28;11662;-80
2021/04/27 03:27:07;;;;;;;;;37.50;33.00;;;;;;;;5023434;28;11724;-82
2021/04/27 03:29:35;;;;;;;;;40.67;37.33;;;;;;;;5025343;28;11691;-77
2021/04/27 03:32:02;;;;;;;;;38.00;33.67;;;;;;;;5021721;28;11564;-81
2021/04/27 03:34:29;;;;;;;;;37.67;33.00;;;;;;;;5022905;28;11611;-79
2021/04/27 03:36:56;;;;;;;;;37.33;35.00;;;;;;;;5022978;28;11732;-79
2021/04/27 03:39:23;;;;;;;;;33.67;30.67;;;;;;;;5022789;28;11639;-81
2021/04/27 03:41:50;;;;;;;;;46.33;38.00;;;;;;;;5024806;28;11586;-83
2021/04/27 03:44:17;;;;;;;;;41.00;36.00;;;;;;;;5019496;28;11638;-88
2021/04/27 03:46:45;;;;;;;;;35.67;31.33;;;;;;;;5023137;28;11615;-78
2021/04/27 03:49:12;;;;;;;;;43.00;40.33;;;;;;;;5023178;28;11613;-81
2021/04/27 03:51:40;;;;;;;;;43.67;39.33;;;;;;;;5027545;28;12532;-79
2021/04/27 03:54:07;;;;;;;;;37.00;37.00;;;;;;;;5023386;28;11645;-79
2021/04/27 03:56:34;;;;;;;;;36.00;33.00;;;;;;;;5022527;28;11623;-78
2021/04/27 03:59:01;;;;;;;;;38.00;36.00;;;;;;;;5023410;28;11602;-80
2021/04/27 04:01:28;;;;;;;;;30.00;30.00;;;;;;;;5021001;28;11573;-81
2021/04/27 04:03:56;;;;;;;;;39.33;35.33;;;;;;;;5024567;28;11591;-80
2021/04/27 04:06:23;;;;;;;;;43.33;40.00;;;;;;;;5023065;28;9002;-82
2021/04/27 04:08:50;;;;;;;;;38.00;37.33;;;;;;;;5025424;28;11717;-79
2021/04/27 04:11:17;;;;;;;;;36.33;33.33;;;;;;;;5023473;28;8872;-82
2021/04/27 04:13:44;;;;;;;;;34.33;31.33;;;;;;;;5024635;28;11649;-81
2021/04/27 04:16:11;;;;;;;;;40.67;38.00;;;;;;;;5022523;28;11624;-83
2021/04/27 04:18:38;;;;;;;;;37.33;33.00;;;;;;;;5022707;28;8954;-83
2021/04/27 04:21:06;;;;;;;;;30.67;29.33;;;;;;;;5023381;28;11634;-80
2021/04/27 04:23:33;;;;;;;;;41.67;39.33;;;;;;;;5021934;28;8880;-83
2021/04/27 04:26:01;;;;;;;;;35.67;35.67;;;;;;;;5023167;28;11674;-84
2021/04/27 04:28:28;;;;;;;;;29.67;27.67;;;;;;;;5020298;28;8913;-81
2021/04/27 04:30:54;;;;;;;;;36.67;34.00;;;;;;;;5022711;28;11654;-80
2021/04/27 04:33:21;;;;;;;;;42.33;41.00;;;;;;;;5021969;28;11632;-79
2021/04/27 04:35:48;;;;;;;;;45.33;36.33;;;;;;;;5023185;28;9018;-80
2021/04/27 04:38:18;;;;;;;;;36.67;34.33;;;;;;;;5022829;28;8894;-79
2021/04/27 04:40:44;;;;;;;;;39.33;34.33;;;;;;;;5021854;28;11734;-79
2021/04/27 04:43:12;;;;;;;;;32.33;29.00;;;;;;;;5023200;28;11772;-80
2021/04/27 04:45:39;;;;;;;;;43.67;37.33;;;;;;;;5021263;28;11726;-80
2021/04/27 04:48:06;;;;;;;;;38.00;36.00;;;;;;;;5022295;28;11675;-81
2021/04/27 04:50:33;;;;;;;;;39.00;35.00;;;;;;;;5005722;28;11592;-82
2021/04/27 04:53:00;;;;;;;;;34.67;30.00;;;;;;;;5020175;28;9668;-86
2021/04/27 04:55:28;;;;;;;;;36.67;29.67;;;;;;;;5020595;28;12457;-76
2021/04/27 04:57:55;;;;;;;;;34.33;31.33;;;;;;;;5020297;28;8863;-77
2021/04/27 05:00:23;;;;;;;;;34.67;34.67;;;;;;;;5033011;28;11625;-75
2021/04/27 05:02:49;;;;;;;;;38.67;34.67;;;;;;;;5019484;28;11604;-73
2021/04/27 05:05:18;;;;;;;;;41.67;36.33;;;;;;;;5018183;28;9111;-76
2021/04/27 05:07:46;;;;;;;;;42.00;36.33;;;;;;;;5019829;28;8860;-77
2021/04/27 05:10:15;;;;;;;;;36.33;31.33;;;;;;;;5021599;28;8902;-73
2021/04/27 05:12:43;;;;;;;;;40.67;32.00;;;;;;;;5021325;28;8899;-75
2021/04/27 05:15:11;;;;;;;;;37.67;31.67;;;;;;;;5021481;28;11626;-73
2021/04/27 05:17:38;;;;;;;;;33.67;33.00;;;;;;;;5018815;28;8864;-74
2021/04/27 05:20:07;;;;;;;;;44.67;38.00;;;;;;;;5020578;28;8860;-74
2021/04/27 05:22:34;;;;;;;;;46.00;40.33;;;;;;;;5019258;28;8872;-74
2021/04/27 05:25:01;;;;;;;;;35.33;33.33;;;;;;;;5019372;28;11673;-75
2021/04/27 05:27:28;;;;;;;;;39.00;34.00;;;;;;;;5021572;28;11714;-74
2021/04/27 05:29:56;;;;;;;;;36.33;34.00;;;;;;;;5017686;28;11600;-76
2021/04/27 05:32:23;;;;;;;;;42.00;35.33;;;;;;;;5016715;28;11626;-76
2021/04/27 05:34:50;;;;;;;;;31.33;31.33;;;;;;;;5020307;28;11631;-74
2021/04/27 05:37:17;;;;;;;;;39.00;35.67;;;;;;;;5022319;28;11597;-74
2021/04/27 05:39:44;;;;;;;;;34.00;31.33;;;;;;;;5021542;28;11640;-74
2021/04/27 05:42:11;;;;;;;;;39.33;36.33;;;;;;;;5020831;28;11625;-75
2021/04/27 05:44:38;;;;;;;;;37.00;33.33;;;;;;;;5018439;28;11629;-75
2021/04/27 05:47:06;;;;;;;;;42.00;34.33;;;;;;;;5018387;28;11618;-76
2021/04/27 05:49:33;;;;;;;;;33.33;32.67;;;;;;;;5022085;28;12511;-75
2021/04/27 05:52:00;;;;;;;;;37.67;30.33;;;;;;;;5019489;28;11605;-75
2021/04/27 05:54:27;;;;;;;;;36.00;34.00;;;;;;;;5020049;28;11636;-74
2021/04/27 05:56:54;;;;;;;;;35.33;33.00;;;;;;;;5021134;28;11614;-75
2021/04/27 05:59:21;;;;;;;;;40.00;37.67;;;;;;;;5020531;28;11589;-74
2021/04/27 06:01:49;;;;;;;;;30.50;30.50;;;;;;;;5022181;28;11600;-74
2021/04/27 06:04:17;;;;;;;;;37.00;35.00;;;;;;;;5017402;28;11610;-75
2021/04/27 06:06:44;;;;;;;;;38.00;37.25;;;;;;;;5020910;28;11665;-74
2021/04/27 06:09:13;;;;;;;;;46.00;39.75;;;;;;;;5021416;28;11772;-74
2021/04/27 06:11:40;;;;;;;;;37.75;33.00;;;;;;;;5025590;28;11633;-76
2021/04/27 06:14:07;;;;;;;;;39.25;32.50;;;;;;;;5024480;28;11635;-76
2021/04/27 06:16:34;;;;;;;;;39.50;38.50;;;;;;;;5023550;28;11706;-75
2021/04/27 06:19:01;;;;;;;;;37.00;33.25;;;;;;;;5024241;28;11676;-75
2021/04/27 06:21:29;;;;;;;;;41.00;32.50;;;;;;;;5024050;28;11630;-75
2021/04/27 06:23:56;;;;;;;;;37.25;29.75;;;;;;;;5023853;28;11629;-75
2021/04/27 06:26:23;;;;;;;;;45.00;39.25;;;;;;;;5023939;28;12402;-76
2021/04/27 06:28:52;;;;;;;;;40.25;39.00;;;;;;;;5023622;28;12832;-75
2021/04/27 06:31:19;;;;;;;;;37.75;34.75;;;;;;;;5028404;28;11610;-75
2021/04/27 06:33:46;;;;;;;;;32.75;32.75;;;;;;;;5031651;28;11632;-76
2021/04/27 06:36:15;;;;;;;;;45.75;36.25;;;;;;;;5023891;28;11606;-74
2021/04/27 06:38:43;;;;;;;;;49.00;38.00;;;;;;;;5032239;28;11759;-76
2021/04/27 06:41:10;;;;;;;;;38.00;36.50;;;;;;;;5037874;28;11626;-75
2021/04/27 06:43:38;;;;;;;;;32.25;28.25;;;;;;;;5034565;28;12443;-74
2021/04/27 06:46:05;;;;;;;;;39.00;35.75;;;;;;;;5038493;28;11722;-77
2021/04/27 06:48:34;;;;;;;;;37.25;32.25;;;;;;;;5024691;28;11622;-79
2021/04/27 06:51:01;;;;;;;;;37.25;33.75;;;;;;;;5023389;28;11659;-77
2021/04/27 06:53:28;;;;;;;;;31.25;31.25;;;;;;;;5022184;28;11745;-77
2021/04/27 06:55:56;;;;;;;;;46.25;38.75;;;;;;;;5020144;28;11637;-77
2021/04/27 06:58:23;;;;;;;;;36.00;36.00;;;;;;;;5022223;28;11609;-78
2021/04/27 07:00:50;;;;;;;;;45.00;40.75;;;;;;;;5020281;28;11552;-77
2021/04/27 07:03:17;;;;;;;;;39.25;34.00;;;;;;;;5021896;28;11620;-77
2021/04/27 07:05:45;;;;;;;;;42.50;38.75;;;;;;;;5003062;28;12531;-77
2021/04/27 07:08:12;;;;;;;;;34.00;31.50;;;;;;;;5022683;28;11628;-77
2021/04/27 07:10:39;;;;;;;;;30.25;30.25;;;;;;;;5023032;28;11154;-77
2021/04/27 07:13:07;;;;;;;;;38.75;38.25;;;;;;;;5023957;28;11590;-76
2021/04/27 07:15:34;;;;;;;;;46.00;38.50;;;;;;;;5030044;28;11606;-77
2021/04/27 07:18:01;;;;;;;;;36.50;33.75;;;;;;;;5030287;28;11597;-77
2021/04/27 07:20:28;;;;;;;;;38.00;35.75;;;;;;;;5036611;28;11603;-77
2021/04/27 07:22:55;;;;;;;;;37.50;37.25;;;;;;;;5033538;28;11644;-78
2021/04/27 07:25:23;;;;;;;;;40.75;39.50;;;;;;;;5033974;28;11633;-77
2021/04/27 07:27:49;;;;;;;;;40.00;37.75;;;;;;;;5037253;28;11625;-78
2021/04/27 07:30:21;;;;;;;;;33.75;33.50;;;;;;;;5035740;28;12539;-78
2021/04/27 07:32:48;;;;;;;;;48.00;40.00;;;;;;;;5032256;28;11569;-78
2021/04/27 07:35:15;;;;;;;;;36.50;35.50;;;;;;;;5029931;28;11746;-77
2021/04/27 07:37:42;;;;;;;;;41.00;38.50;;;;;;;;5036698;28;11739;-77
2021/04/27 07:40:09;;;;;;;;;34.50;33.50;;;;;;;;5031120;28;11604;-77
2021/04/27 07:42:36;;;;;;;;;35.50;34.25;;;;;;;;5039469;28;11659;-77
2021/04/27 07:45:05;;;;;;;;;33.50;31.75;;;;;;;;5026664;28;12783;-77
2021/04/27 07:47:33;;;;;;;;;36.00;32.50;;;;;;;;5030450;28;11598;-76
2021/04/27 07:50:00;;;;;;;;;35.25;31.25;;;;;;;;5031875;28;11627;-79
2021/04/27 07:52:27;;;;;;;;;29.75;28.75;;;;;;;;5034132;28;11564;-76
2021/04/27 07:54:54;;;;;;;;;25.00;25.00;;;;;;;;5031691;28;11554;-78
2021/04/27 07:57:21;;;;;;;;;34.50;34.00;;;;;;;;5015376;28;11546;-77
2021/04/27 07:59:49;;;;;;;;;28.75;26.25;;;;;;;;5028084;28;11546;-78
2021/04/27 08:02:15;;;;;;;;;35.25;34.75;;;;;;;;5034602;28;11475;-79
2021/04/27 08:04:45;;;;;;;;;41.00;32.00;;;;;;;;5032349;28;11742;-78
2021/04/27 08:07:12;;;;;;;;;39.50;34.50;;;;;;;;5033475;28;11681;-78
2021/04/27 08:09:39;;;;;;;;;33.50;33.50;;;;;;;;5032685;28;11590;-79
2021/04/27 08:12:07;;;;;;;;;38.75;36.00;;;;;;;;5026725;28;12354;-79
2021/04/27 08:14:34;;;;;;;;;33.25;31.00;;;;;;;;5029572;28;11586;-78
2021/04/27 08:17:01;;;;;;;;;44.50;37.75;;;;;;;;5029747;28;11550;-78
2021/04/27 08:19:28;;;;;;;;;40.25;37.25;;;;;;;;5034977;28;11690;-78
2021/04/27 08:21:56;;;;;;;;;38.25;34.50;;;;;;;;5034022;28;11601;-79
2021/04/27 08:24:23;;;;;;;;;35.25;35.00;;;;;;;;5037724;28;11549;-78
2021/04/27 08:26:50;;;;;;;;;41.00;36.50;;;;;;;;5029129;28;11530;-77
2021/04/27 08:29:17;;;;;;;;;37.25;35.75;;;;;;;;5034175;28;11546;-78
2021/04/27 08:31:44;;;;;;;;;43.00;36.75;;;;;;;;5032986;28;11187;-78
2021/04/27 08:34:11;;;;;;;;;43.50;37.25;;;;;;;;5024477;28;11528;-79
2021/04/27 08:36:37;;;;;;;;;31.50;31.50;;;;;;;;5028097;28;11045;-78
2021/04/27 08:39:08;;;;;;;;;38.75;35.50;;;;;;;;5020449;28;11397;-78
2021/04/27 08:41:37;;;;;;;;;47.25;37.25;;;;;;;;5033654;28;10958;-78
2021/04/27 08:44:05;;;;;;;;;31.50;29.75;;;;;;;;5028831;28;10777;-79
2021/04/27 08:46:32;;;;;;;;;37.25;32.75;;;;;;;;5020291;28;10490;-79
2021/04/27 08:48:59;;;;;;;;;35.00;33.50;;;;;;;;5026460;28;10546;-78
2021/04/27 08:51:26;;;;;;;;;38.00;35.50;;;;;;;;5031322;28;10438;-78
2021/04/27 08:53:53;;;;;;;;;34.25;34.00;;;;;;;;5035360;28;10523;-79
2021/04/27 08:56:21;;;;;;;;;40.25;36.75;;;;;;;;5025382;28;10234;-79
2021/04/27 08:58:48;;;;;;;;;36.50;34.25;;;;;;;;5026716;28;10338;-79
2021/04/27 09:01:15;;;;;;;;;34.00;33.75;;;;;;;;5019773;28;10928;-77
2021/04/27 09:03:44;;;;;;;;;33.50;31.75;;;;;;;;5026453;28;10053;-77
2021/04/27 09:06:16;;;;;;;;;36.00;32.50;;;;;;;;5026953;28;10827;-77
2021/04/27 09:08:43;;;;;;;;;33.50;31.75;;;;;;;;5038013;28;9765;-77
2021/04/27 09:11:31;;;;;;;;;29.50;27.75;;;;;;;;5033646;28;9741;-77
2021/04/27 09:14:16;;;;;;;;;34.75;33.50;;;;;;;;5027054;28;10534;-76
2021/04/27 09:16:49;;;;;;;;;37.00;33.67;;;;;;;;5027215;28;9659;-76
2021/04/27 09:19:34;;;;;;;;;35.00;33.67;;;;;;;;5019391;28;9421;-76
2021/04/27 09:22:06;;;;;;;;;34.75;31.50;;;;;;;;5032500;28;9650;-77
2021/04/27 09:24:38;;;;;;;;;41.33;33.67;;;;;;;;5028616;28;9597;-78
2021/04/27 09:27:07;;;;;;;;;36.00;31.33;;;;;;;;5028108;28;9846;-79
2021/04/27 09:29:37;;;;;;;;;32.67;31.67;;;;;;;;5035724;28;9322;-76
2021/04/27 09:32:04;;;;;;;;;32.00;31.00;;;;;;;;5025595;28;9323;-78
2021/04/27 09:34:33;;;;;;;;;31.33;29.67;;;;;;;;5030440;28;9198;-77
2021/04/27 09:37:01;;;;;;;;;37.00;34.00;;;;;;;;5032646;28;9236;-78
2021/04/27 09:39:36;;;;;;;;;35.67;34.00;;;;;;;;5021735;28;9235;-78
2021/04/27 09:42:07;;;;;;;;;31.25;29.50;;;;;;;;5033112;28;9125;-78
2021/04/27 09:44:40;;;;;;;;;31.50;28.75;;;;;;;;5022130;28;9002;-77
2021/04/27 09:47:13;;;;;;;;;29.75;29.75;;;;;;;;5022788;28;8852;-76
2021/04/27 09:49:40;;;;;;;;;29.00;28.25;;;;;;;;5031642;28;8907;-76
2021/04/27 09:52:09;;;;;;;;;33.75;31.50;;;;;;;;5032080;28;8879;-73
2021/04/27 09:54:51;;;;;;;;;31.25;29.50;;;;;;;;5029888;28;8895;-75
2021/04/27 09:57:26;;;;;;;;;33.75;29.75;;;;;;;;5018530;28;8860;-76
2021/04/27 09:59:53;;;;;;;;;28.50;27.25;;;;;;;;5024897;28;8898;-76
2021/04/27 10:02:23;;;;;;;;;35.00;32.75;;;;;;;;5027802;28;8850;-76
2021/04/27 10:04:51;;;;;;;;;33.50;31.25;;;;;;;;5032195;28;8856;-77
2021/04/27 10:07:19;;;;;;;;;35.75;33.00;;;;;;;;5019137;28;8907;-77
2021/04/27 10:09:47;;;;;;;;;31.25;31.00;;;;;;;;5023999;28;8900;-75
2021/04/27 10:12:14;;;;;;;;;31.25;29.75;;;;;;;;5034449;28;8876;-76
2021/04/27 10:14:42;;;;;;;;;28.25;26.25;;;;;;;;5037371;28;8845;-76
2021/04/27 10:17:16;;;;;;;;;25.75;25.75;;;;;;;;5038234;28;8918;-77
2021/04/27 10:19:43;;;;;;;;;25.25;22.25;;;;;;;;5035254;28;8884;-75
2021/04/27 10:22:12;;;;;;;;;20.00;19.25;;;;;;;;5039819;28;8875;-75
2021/04/27 10:24:39;;;;;;;;;17.50;17.50;;;;;;;;5037065;28;8864;-75
2021/04/27 10:27:06;;;;;;;;;23.00;21.75;;;;;;;;5038091;28;8885;-75
2021/04/27 10:29:33;;;;;;;;;16.50;16.50;;;;;;;;5032073;28;9734;-78
2021/04/27 10:32:19;;;;;;;;;14.50;14.00;;;;;;;;5033059;28;9011;-76
2021/04/27 10:35:05;;;;;;;;;12.75;11.25;;;;;;;;5036508;28;8884;-76
2021/04/27 10:37:48;;;;;;;;;8.00;8.00;;;;;;;;5034199;28;8883;-77
2021/04/27 10:40:42;;;;;;;;;9.25;9.25;;;;;;;;5029710;28;9669;-73
2021/04/27 10:43:37;;;;;;;;;10.00;10.00;;;;;;;;5023332;28;8907;-72
2021/04/27 10:46:06;;;;;;;;;9.50;9.50;;;;;;;;5018357;28;8871;-75
2021/04/27 10:48:36;;;;;;;;;10.25;8.75;;;;;;;;5023364;28;8868;-73
2021/04/27 10:51:34;;;;;;;;;9.00;9.00;;;;;;;;5023450;28;8852;-74
2021/04/27 10:54:08;;;;;;;;;7.00;7.00;;;;;;;;5020151;28;8970;-74
2021/04/27 10:56:36;;;;;;;;;7.60;7.60;;;;;;;;5027807;28;8868;-73
2021/04/27 10:59:10;;;;;;;;;9.60;8.60;;;;;;;;5023887;28;8865;-75
2021/04/27 11:01:40;;;;;;;;;8.20;7.40;;;;;;;;5026363;28;8866;-80
2021/04/27 11:04:20;;;;;;;;;9.80;9.60;;;;;;;;5023320;28;8872;-75
2021/04/27 11:06:50;;;;;;;;;14.00;12.40;;;;;;;;5023138;28;8860;-75
2021/04/27 11:09:17;;;;;;;;;12.00;12.00;;;;;;;;5023394;28;8886;-75
2021/04/27 11:11:44;;;;;;;;;9.60;9.60;;;;;;;;5022515;28;8962;-76
2021/04/27 11:14:20;;;;;;;;;12.60;12.60;;;;;;;;5030353;28;8879;-73
2021/04/27 11:16:53;;;;;;;;;15.00;13.60;;;;;;;;5031541;28;8872;-75
2021/04/27 11:19:43;;;;;;;;;14.00;12.00;;;;;;;;5026165;28;8906;-76
2021/04/27 11:22:23;;;;;;;;;16.50;16.50;;;;;;;;5039247;28;8897;-77
2021/04/27 11:24:51;;;;;;;;;13.80;12.20;;;;;;;;5036844;28;8869;-77
2021/04/27 11:27:23;;;;;;;;;13.20;11.60;;;;;;;;5032582;28;8931;-76
2021/04/27 11:29:55;;;;;;;;;7.80;7.80;;;;;;;;5029704;28;8865;-75
2021/04/27 11:32:22;;;;;;;;;10.00;10.00;;;;;;;;5032205;28;8916;-75
2021/04/27 11:35:08;;;;;;;;;8.20;8.20;;;;;;;;5025545;28;8864;-76
2021/04/27 11:37:38;;;;;;;;;10.80;10.00;;;;;;;;5034210;28;8849;-77
2021/04/27 11:40:22;;;;;;;;;10.40;10.40;;;;;;;;5028315;28;9034;-76
2021/04/27 11:42:58;;;;;;;;;12.20;11.60;;;;;;;;5039426;28;8884;-76
2021/04/27 11:45:27;;;;;;;;;13.00;9.60;;;;;;;;5015447;28;9842;-76
2021/04/27 11:47:54;;;;;;;;;11.00;11.00;;;;;;;;5021579;28;8864;-76
2021/04/27 11:50:23;;;;;;;;;11.00;11.00;;;;;;;;5024035;28;8879;-76
2021/04/27 11:53:03;;;;;;;;;11.60;11.60;;;;;;;;5035411;28;8987;-76
2021/04/27 11:55:39;;;;;;;;;12.00;12.00;;;;;;;;5019187;28;8852;-76
2021/04/27 11:58:09;;;;;;;;;10.20;10.20;;;;;;;;5030754;28;8868;-77
2021/04/27 12:00:40;;;;;;;;;6.60;6.60;;;;;;;;5029657;28;8821;-77
2021/04/27 12:03:22;;;;;;;;;12.00;10.40;;;;;;;;5020763;28;8902;-76
2021/04/27 12:05:53;;;;;;;;;15.20;12.80;;;;;;;;5020297;28;8939;-75
2021/04/27 12:08:22;;;;;;;;;11.00;11.00;;;;;;;;5028158;28;9669;-76
2021/04/27 12:11:06;;;;;;;;;13.80;13.00;;;;;;;;5029878;28;8883;-75
2021/04/27 12:13:33;;;;;;;;;12.60;12.60;;;;;;;;5023241;28;8887;-80
2021/04/27 12:16:06;;;;;;;;;13.00;12.20;;;;;;;;5026636;28;8879;-77
2021/04/27 12:18:33;;;;;;;;;14.80;13.20;;;;;;;;5031284;28;8988;-75
2021/04/27 12:21:00;;;;;;;;;11.20;10.00;;;;;;;;5039526;28;8865;-80
2021/04/27 12:23:27;;;;;;;;;15.20;13.20;;;;;;;;5029943;28;9233;-78
2021/04/27 12:25:58;;;;;;;;;10.80;10.80;;;;;;;;5023326;28;8876;-78
2021/04/27 12:28:25;;;;;;;;;10.40;10.40;;;;;;;;5031133;28;8865;-77
2021/04/27 12:30:52;;;;;;;;;8.80;8.80;;;;;;;;5035099;28;9634;-79
2021/04/27 12:33:23;;;;;;;;;11.00;11.00;;;;;;;;5024624;28;8941;-76
2021/04/27 12:35:53;;;;;;;;;12.20;10.60;;;;;;;;5029371;28;8972;-76
2021/04/27 12:38:21;;;;;;;;;10.80;10.80;;;;;;;;5034973;28;8938;-75
2021/04/27 12:40:53;;;;;;;;;12.60;12.20;;;;;;;;5030732;28;9046;-76
2021/04/27 12:43:31;;;;;;;;;12.00;12.00;;;;;;;;5034602;28;8848;-75
2021/04/27 12:46:00;;;;;;;;;15.40;11.40;;;;;;;;5028931;28;8871;-74
2021/04/27 12:48:29;;;;;;;;;13.00;12.80;;;;;;;;5030479;28;8893;-74
2021/04/27 12:50:59;;;;;;;;;11.00;9.80;;;;;;;;5029407;28;10195;-75
2021/04/27 12:53:36;;;;;;;;;10.80;10.80;;;;;;;;5033165;28;8972;-75
2021/04/27 12:56:09;;;;;;;;;11.00;11.00;;;;;;;;5028338;28;8875;-75
2021/04/27 12:58:36;;;;;;;;;10.80;8.80;;;;;;;;5019422;28;10251;-74
2021/04/27 13:01:05;;;;;;;;;11.00;9.00;;;;;;;;5019903;28;8822;-75
2021/04/27 13:03:34;;;;;;;;;9.40;9.40;;;;;;;;5021224;28;9007;-74
2021/04/27 13:06:24;;;;;;;;;10.00;8.80;;;;;;;;5021904;28;9563;-73
2021/04/27 13:09:05;;;;;;;;;11.00;11.00;;;;;;;;5010356;28;8864;-75
2021/04/27 13:11:32;;;;;;;;;12.00;10.00;;;;;;;;5020753;28;9455;-74
2021/04/27 13:14:17;;;;;;;;;9.60;9.60;;;;;;;;5021522;28;8844;-74
2021/04/27 13:16:44;;;;;;;;;9.60;9.60;;;;;;;;5016395;28;8894;-74
2021/04/27 13:19:11;;;;;;;;;12.00;10.20;;;;;;;;5022806;28;9951;-74
2021/04/27 13:21:41;;;;;;;;;9.60;9.60;;;;;;;;5023394;28;9010;-74
2021/04/27 13:24:14;;;;;;;;;12.80;11.40;;;;;;;;5025588;28;8865;-75
2021/04/27 13:26:41;;;;;;;;;10.20;10.20;;;;;;;;5027818;28;8852;-75
2021/04/27 13:29:08;;;;;;;;;11.40;9.60;;;;;;;;5024331;28;8907;-74
2021/04/27 13:31:34;;;;;;;;;13.20;13.20;;;;;;;;5030339;28;8812;-74
2021/04/27 13:34:01;;;;;;;;;13.40;13.40;;;;;;;;5017837;28;8899;-74
2021/04/27 13:36:28;;;;;;;;;11.00;11.00;;;;;;;;5022631;28;8880;-75
2021/04/27 13:38:55;;;;;;;;;11.60;11.60;;;;;;;;5022465;28;8897;-75
2021/04/27 13:41:23;;;;;;;;;11.20;8.60;;;;;;;;5022369;28;8922;-75
2021/04/27 13:43:50;;;;;;;;;13.60;12.60;;;;;;;;5032331;28;8864;-75
2021/04/27 13:46:19;;;;;;;;;11.00;11.00;;;;;;;;5035351;28;8873;-75
2021/04/27 13:48:47;;;;;;;;;9.20;9.20;;;;;;;;5029679;28;8998;-75
2021/04/27 13:51:16;;;;;;;;;12.40;12.40;;;;;;;;5038703;28;8877;-76
2021/04/27 13:53:43;;;;;;;;;10.80;10.80;;;;;;;;5033662;28;9619;-75
2021/04/27 13:56:13;;;;;;;;;8.60;8.60;;;;;;;;5037737;28;8884;-76
2021/04/27 13:58:41;;;;;;;;;10.40;9.20;;;;;;;;5036786;28;8992;-75
2021/04/27 14:01:08;;;;;;;;;7.20;7.20;;;;;;;;5039636;28;8810;-77
2021/04/27 14:03:35;;;;;;;;;9.80;9.80;;;;;;;;5028995;28;8897;-75
2021/04/27 14:06:02;;;;;;;;;9.20;9.20;;;;;;;;5035570;28;8869;-76
2021/04/27 14:08:29;;;;;;;;;11.40;11.20;;;;;;;;5028257;28;9027;-76
2021/04/27 14:10:56;;;;;;;;;12.60;10.80;;;;;;;;5059703;28;8868;-76
2021/04/27 14:13:23;;;;;;;;;14.60;13.40;;;;;;;;5037383;28;8869;-76
2021/04/27 14:15:52;;;;;;;;;11.80;11.80;;;;;;;;5040891;28;8956;-77
2021/04/27 14:18:19;;;;;;;;;11.00;11.00;;;;;;;;5030601;28;9254;-76
2021/04/27 14:20:46;;;;;;;;;11.40;11.40;;;;;;;;5037798;28;8877;-75
2021/04/27 14:23:14;;;;;;;;;11.00;11.00;;;;;;;;5039393;28;8912;-75
2021/04/27 14:25:41;;;;;;;;;9.60;9.60;;;;;;;;5030980;28;8955;-76
2021/04/27 14:28:11;;;;;;;;;12.00;12.00;;;;;;;;5039359;28;8857;-75
2021/04/27 14:30:38;;;;;;;;;0.00;0.00;;;;;;;;5032073;28;9684;-76
2021/04/27 14:33:06;;;;;;;;;7.80;6.60;;;;;;;;5029053;28;8885;-76
2021/04/27 14:35:35;;;;;;;;;11.00;11.00;;;;;;;;5028798;28;9588;-75